ADDS METAR Data INFO
IDs: Format: Raw Decoded Include TAF

Data at: 0344 UTC 17 Oct 2017

KJWY 170335Z AUTO 00000KT 10SM CLR 11/07 A3030 RMK AO2 T01130065
KJWY 170315Z AUTO 00000KT 10SM CLR 13/06 A3030 RMK AO2 T01260056
KJWY 170255Z AUTO 00000KT 10SM CLR 13/06 A3030 RMK AO2 60001 T01300057
KJWY 170235Z AUTO 01003KT 10SM CLR 14/06 A3030 RMK AO2 T01420056
KJWY 170215Z AUTO 02003KT 10SM CLR 14/06 A3030 RMK AO2 T01410058
KJWY 170155Z AUTO 00000KT 10SM CLR 13/06 A3029 RMK AO2 T01270060
KJWY 170135Z AUTO 00000KT 10SM CLR 13/06 A3029 RMK AO2 T01300060
KJWY 170115Z AUTO 00000KT 10SM CLR 15/06 A3029 RMK AO2 T01450060
KJWY 170055Z AUTO 00000KT 10SM CLR 15/06 A3029 RMK AO2 P0001 T01540057
KJWY 170035Z AUTO 00000KT 10SM CLR 16/06 A3028 RMK AO2 T01600056
KJWY 170015Z AUTO 00000KT 10SM CLR 16/06 A3028 RMK AO2 T01620057
KJWY 162355Z AUTO 00000KT 10SM CLR 18/06 A3028 RMK AO2 T01840055 10225 20184
KJWY 162335Z AUTO 00000KT 10SM CLR 20/05 A3028 RMK AO2 T02000046
KJWY 162315Z AUTO 02004KT 10SM CLR 21/04 A3028 RMK AO2 T02090044
KJWY 162255Z AUTO 03006KT 10SM CLR 21/04 A3027 RMK AO2 T02140044
KJWY 162235Z AUTO 01006KT 10SM CLR 22/04 A3028 RMK AO2 T02170038
KJWY 162215Z AUTO 36008KT 10SM CLR 22/04 A3028 RMK AO2 T02220040
KJWY 162155Z AUTO 01007KT 10SM CLR 22/04 A3029 RMK AO2 T02240043
KJWY 162135Z AUTO 35007KT 10SM CLR 23/04 A3028 RMK AO2 T02250041
KJWY 162115Z AUTO 35006KT 10SM CLR 22/03 A3029 RMK AO2 T02230033
KJWY 162055Z AUTO 03008KT 10SM CLR 22/04 A3029 RMK AO2 T02200040
KJWY 162035Z AUTO 34007KT 320V020 10SM CLR 22/05 A3030 RMK AO2 T02180045
KJWY 162015Z AUTO 03003KT 10SM CLR 22/04 A3030 RMK AO2 T02170043
KJWY 161955Z AUTO 03003KT 10SM CLR 22/04 A3032 RMK AO2 T02150043
KJWY 161935Z AUTO 02006KT 10SM CLR 21/05 A3033 RMK AO2 T02120050
KJWY 161915Z AUTO 02003KT 10SM CLR 21/05 A3035 RMK AO2 T02080052
KJWY 161855Z AUTO 35008KT 320V020 10SM CLR 21/06 A3035 RMK AO2 T02080060
KJWY 161835Z AUTO 36006KT 10SM CLR 21/07 A3037 RMK AO2 T02060065
KJWY 161815Z AUTO 05007KT 10SM CLR 20/05 A3038 RMK AO2 T01990053
KJWY 161755Z AUTO 03004KT 10SM CLR 20/06 A3039 RMK AO2 T01950062 10196 20073
KJWY 161735Z AUTO 05006KT 10SM CLR 19/06 A3040 RMK AO2 T01890062
KJWY 161715Z AUTO 05004G15KT 10SM CLR 18/06 A3041 RMK AO2 T01810056
KJWY 161655Z AUTO 05007KT 10SM CLR 19/06 A3042 RMK AO2 T01850063
KJWY 161635Z AUTO 36004KT 10SM CLR 18/06 A3043 RMK AO2 T01750063
KJWY 161615Z AUTO 04005KT 10SM CLR 17/07 A3043 RMK AO2 T01740066
KJWY 161555Z AUTO 05010G14KT 10SM CLR 17/07 A3043 RMK AO2 T01710066
KJWY 161535Z AUTO 04006KT 10SM CLR 16/07 A3043 RMK AO2 T01630068
KJWY 161515Z AUTO 05008KT 10SM CLR 16/07 A3043 RMK AO2 T01600066
KJWY 161455Z AUTO 03005KT 10SM CLR 15/07 A3043 RMK AO2 T01480067
KJWY 161435Z AUTO 02006KT 10SM CLR 14/07 A3043 RMK AO2 T01380068
KJWY 161415Z AUTO 01008KT 10SM CLR 13/07 A3042 RMK AO2 T01290069
KJWY 161355Z AUTO 36007KT 10SM CLR 12/07 A3041 RMK AO2 T01180070
KJWY 161335Z AUTO 35005KT 10SM CLR 10/07 A3041 RMK AO2 T01040072
KJWY 161315Z AUTO 35006KT 10SM CLR 09/07 A3041 RMK AO2 T00880066
KJWY 161255Z AUTO 34005KT 10SM CLR 08/06 A3040 RMK AO2 T00790058
KJWY 161235Z AUTO 34004KT 10SM CLR 07/05 A3040 RMK AO2 T00740053
KJWY 161215Z AUTO 00000KT 10SM CLR 08/06 A3040 RMK AO2 T00760056
KJWY 161155Z AUTO 32003KT 10SM CLR 08/06 A3039 RMK AO2 70001 T00790056 10111 20079
KJWY 161135Z AUTO 31003KT 10SM CLR 08/06 A3039 RMK AO2 T00830058
KJWY 161115Z AUTO 33005KT 10SM CLR 08/06 A3038 RMK AO2 T00800057
KJWY 161055Z AUTO 32003KT 10SM CLR 09/06 A3038 RMK AO2 T00870060
KJWY 161035Z AUTO 32003KT 10SM CLR 09/06 A3037 RMK AO2 T00900060
KJWY 161015Z AUTO 33006KT 10SM CLR 09/06 A3037 RMK AO2 T00930063
KJWY 160955Z AUTO 34007KT 10SM CLR 10/07 A3036 RMK AO2 T00960065
KJWY 160935Z AUTO 34007KT 10SM CLR 10/07 A3036 RMK AO2 T00960065
KJWY 160915Z AUTO 35005KT 10SM CLR 09/07 A3036 RMK AO2 T00940065
KJWY 160855Z AUTO 34006KT 10SM CLR 09/07 A3036 RMK AO2 T00920065
KJWY 160835Z AUTO 34005KT 10SM CLR 09/07 A3037 RMK AO2 T00940066
KJWY 160815Z AUTO 34006KT 10SM CLR 10/07 A3037 RMK AO2 T00950067
KJWY 160755Z AUTO 34006KT 10SM CLR 10/07 A3037 RMK AO2 T00950068
KJWY 160735Z AUTO 34005KT 10SM CLR 10/07 A3037 RMK AO2 T00950066
KJWY 160715Z AUTO 33005KT 10SM CLR 10/07 A3037 RMK AO2 T01020068
KJWY 160655Z AUTO 33004KT 10SM CLR 11/07 A3037 RMK AO2 T01080067
KJWY 160635Z AUTO 32003KT 10SM CLR 11/07 A3037 RMK AO2 T01100065
KJWY 160615Z AUTO 33004KT 10SM CLR 11/07 A3037 RMK AO2 T01100065
KJWY 160555Z AUTO 33003KT 10SM CLR 11/06 A3036 RMK AO2 T01100063 10196 20105 402380105
KJWY 160535Z AUTO 34005KT 10SM CLR 11/06 A3036 RMK AO2 T01060063
KJWY 160515Z AUTO 35005KT 10SM CLR 11/07 A3036 RMK AO2 T01100065
KJWY 160455Z AUTO 35006KT 10SM CLR 11/06 A3037 RMK AO2 T01100064
KJWY 160435Z AUTO 34005KT 10SM CLR 11/06 A3037 RMK AO2 T01060062
KJWY 160415Z AUTO 34004KT 10SM CLR 11/06 A3036 RMK AO2 T01100062
KJWY 160355Z AUTO 35004KT 10SM CLR 13/06 A3036 RMK AO2 T01300060
KJWY 160335Z AUTO 34003KT 10SM CLR 12/06 A3036 RMK AO2 T01220063
KJWY 160315Z AUTO 34005KT 10SM CLR 12/07 A3035 RMK AO2 T01210065
KJWY 160255Z AUTO 34003KT 10SM CLR 14/06 A3035 RMK AO2 T01400060
KJWY 160235Z AUTO 35005KT 10SM CLR 14/06 A3035 RMK AO2 T01440060
KJWY 160215Z AUTO 35007KT 10SM CLR 15/06 A3034 RMK AO2 T01460060
KJWY 160155Z AUTO 35007KT 10SM CLR 16/06 A3034 RMK AO2 T01580058
KJWY 160135Z AUTO 35008KT 10SM CLR 16/06 A3033 RMK AO2 T01560058
KJWY 160115Z AUTO 35008KT 10SM CLR 17/06 A3032 RMK AO2 T01660055
KJWY 160055Z AUTO 35010KT 10SM CLR 17/05 A3030 RMK AO2 T01690054
KJWY 160035Z AUTO 35006KT 10SM CLR 17/05 A3029 RMK AO2 T01670054
KJWY 160015Z AUTO 35008KT 10SM CLR 18/05 A3028 RMK AO2 T01790051
KJWY 152355Z AUTO 36009G18KT 10SM CLR 20/05 A3027 RMK AO2 T01970048 10230 20197
KJWY 152335Z AUTO 35011G16KT 10SM CLR 21/06 A3026 RMK AO2 T02050058
KJWY 152315Z AUTO 35012KT 10SM CLR 21/06 A3026 RMK AO2 T02100063
KJWY 152255Z AUTO 36012G19KT 10SM CLR 22/06 A3025 RMK AO2 T02170061
KJWY 152235Z AUTO 34014G19KT 10SM CLR 22/06 A3025 RMK AO2 T02190063
KJWY 152215Z AUTO 34015G21KT 10SM CLR 21/07 A3025 RMK AO2 T02100067
KJWY 152155Z AUTO 36013G21KT 10SM CLR 22/07 A3025 RMK AO2 T02160067
KJWY 152135Z AUTO 01013G22KT 10SM CLR 23/06 A3025 RMK AO2 T02250064
KJWY 152115Z AUTO 34018G24KT 10SM CLR 23/07 A3025 RMK AO2 T02250070
KJWY 152055Z AUTO 35017G27KT 10SM CLR 22/07 A3025 RMK AO2 T02240072
KJWY 152035Z AUTO 33017G21KT 10SM CLR 23/09 A3025 RMK AO2 T02290086
KJWY 152015Z AUTO 35019G23KT 10SM CLR 23/09 A3025 RMK AO2 T02260087
KJWY 151955Z AUTO 35017G24KT 10SM CLR 22/09 A3026 RMK AO2 T02220090
KJWY 151935Z AUTO 34014G22KT 10SM CLR 23/10 A3026 RMK AO2 T02260101
KJWY 151915Z AUTO 35015G20KT 10SM CLR 22/10 A3026 RMK AO2 T02230099
KJWY 151855Z AUTO 33016G22KT 10SM CLR 22/10 A3027 RMK AO2 T02150100
KJWY 151835Z AUTO 35013G20KT 10SM CLR 22/10 A3028 RMK AO2 T02170103
KJWY 151815Z AUTO 34019G22KT 10SM CLR 21/11 A3028 RMK AO2 T02100109
KJWY 151755Z AUTO 35015G23KT 10SM CLR 21/11 A3028 RMK AO2 60001 T02060110 10207 20156
KJWY 151735Z AUTO 35015G22KT 10SM CLR 20/12 A3029 RMK AO2 T01990117
KJWY 151715Z AUTO 34014G20KT 10SM SCT023 19/12 A3030 RMK AO2 T01900120
KJWY 151655Z AUTO 34018G22KT 10SM BKN021 19/12 A3030 RMK AO2 T01850122
KJWY 151635Z AUTO 34019G25KT 10SM OVC019 17/12 A3029 RMK AO2 T01690123
KJWY 151615Z AUTO 36015G24KT 10SM OVC017 17/13 A3028 RMK AO2 T01710132
KJWY 151555Z AUTO 35017G25KT 10SM OVC017 16/13 A3028 RMK AO2 P0001 T01610129